sensor_id;sensor_type;location;lat;lon;timestamp;pressure;altitude;pressure_sealevel;temperature;humidity
75192;BME280;63771;52.580;9.734;2023-03-01T00:01:14;102843.63;;;-3.87;82.90
75192;BME280;63771;52.580;9.734;2023-03-01T00:03:41;102853.09;;;-3.90;83.65
75192;BME280;63771;52.580;9.734;2023-03-01T00:06:07;102853.47;;;-3.92;83.71
75192;BME280;63771;52.580;9.734;2023-03-01T00:08:33;102847.19;;;-4.00;82.97
75192;BME280;63771;52.580;9.734;2023-03-01T00:11:07;102838.78;;;-4.01;83.23
75192;BME280;63771;52.580;9.734;2023-03-01T00:13:35;102840.34;;;-4.01;83.22
75192;BME280;63771;52.580;9.734;2023-03-01T00:16:05;102852.16;;;-4.00;83.47
75192;BME280;63771;52.580;9.734;2023-03-01T00:18:30;102847.84;;;-4.01;83.87
75192;BME280;63771;52.580;9.734;2023-03-01T00:20:56;102846.63;;;-4.03;83.75
75192;BME280;63771;52.580;9.734;2023-03-01T00:23:22;102846.38;;;-4.05;83.54
75192;BME280;63771;52.580;9.734;2023-03-01T00:25:48;102843.34;;;-4.08;83.51
75192;BME280;63771;52.580;9.734;2023-03-01T00:28:13;102840.34;;;-4.11;83.59
75192;BME280;63771;52.580;9.734;2023-03-01T00:30:39;102843.19;;;-4.13;83.44
75192;BME280;63771;52.580;9.734;2023-03-01T00:33:04;102845.84;;;-4.17;83.53
75192;BME280;63771;52.580;9.734;2023-03-01T00:35:32;102847.13;;;-4.20;83.98
75192;BME280;63771;52.580;9.734;2023-03-01T00:37:57;102840.44;;;-4.25;84.15
75192;BME280;63771;52.580;9.734;2023-03-01T00:40:27;102845.66;;;-4.23;84.10
75192;BME280;63771;52.580;9.734;2023-03-01T00:42:53;102840.44;;;-4.25;84.25
75192;BME280;63771;52.580;9.734;2023-03-01T00:45:18;102842.91;;;-4.25;84.24
75192;BME280;63771;52.580;9.734;2023-03-01T00:47:44;102834.13;;;-4.32;84.37
75192;BME280;63771;52.580;9.734;2023-03-01T00:50:11;102850.50;;;-4.29;84.28
75192;BME280;63771;52.580;9.734;2023-03-01T00:52:37;102841.19;;;-4.30;84.62
75192;BME280;63771;52.580;9.734;2023-03-01T00:55:03;102841.88;;;-4.31;84.76
75192;BME280;63771;52.580;9.734;2023-03-01T00:57:28;102846.84;;;-4.31;84.08
75192;BME280;63771;52.580;9.734;2023-03-01T00:59:54;102844.09;;;-4.32;84.06
75192;BME280;63771;52.580;9.734;2023-03-01T01:02:19;102842.53;;;-4.32;84.34
75192;BME280;63771;52.580;9.734;2023-03-01T01:04:45;102844.47;;;-4.35;84.77
75192;BME280;63771;52.580;9.734;2023-03-01T01:07:11;102839.59;;;-4.39;84.57
75192;BME280;63771;52.580;9.734;2023-03-01T01:09:36;102840.00;;;-4.41;84.66
75192;BME280;63771;52.580;9.734;2023-03-01T01:12:02;102827.91;;;-4.44;84.89
75192;BME280;63771;52.580;9.734;2023-03-01T01:14:27;102829.09;;;-4.52;84.06
75192;BME280;63771;52.580;9.734;2023-03-01T01:16:53;102826.19;;;-4.49;84.41
75192;BME280;63771;52.580;9.734;2023-03-01T01:19:18;102820.94;;;-4.51;84.23
75192;BME280;63771;52.580;9.734;2023-03-01T01:21:44;102821.34;;;-4.53;84.30
75192;BME280;63771;52.580;9.734;2023-03-01T01:24:10;102818.56;;;-4.55;84.36
75192;BME280;63771;52.580;9.734;2023-03-01T01:26:35;102816.75;;;-4.56;84.60
75192;BME280;63771;52.580;9.734;2023-03-01T01:29:03;102817.41;;;-4.57;84.52
75192;BME280;63771;52.580;9.734;2023-03-01T01:31:29;102812.16;;;-4.58;84.50
75192;BME280;63771;52.580;9.734;2023-03-01T01:33:55;102801.91;;;-4.60;84.55
75192;BME280;63771;52.580;9.734;2023-03-01T01:36:22;102799.81;;;-4.62;84.66
75192;BME280;63771;52.580;9.734;2023-03-01T01:38:48;102802.97;;;-4.63;84.55
75192;BME280;63771;52.580;9.734;2023-03-01T01:41:14;102798.66;;;-4.64;84.76
75192;BME280;63771;52.580;9.734;2023-03-01T01:43:42;102815.13;;;-4.65;84.99
75192;BME280;63771;52.580;9.734;2023-03-01T01:46:37;102805.56;;;-4.67;85.06
75192;BME280;63771;52.580;9.734;2023-03-01T01:49:09;102817.38;;;-4.66;85.21
75192;BME280;63771;52.580;9.734;2023-03-01T01:51:42;102811.47;;;-4.67;85.12
75192;BME280;63771;52.580;9.734;2023-03-01T01:54:13;102806.88;;;-4.69;84.98
75192;BME280;63771;52.580;9.734;2023-03-01T01:56:42;102798.97;;;-4.77;84.68
75192;BME280;63771;52.580;9.734;2023-03-01T01:59:09;102799.53;;;-4.74;84.59
75192;BME280;63771;52.580;9.734;2023-03-01T02:01:35;102797.03;;;-4.74;84.85
75192;BME280;63771;52.580;9.734;2023-03-01T02:04:00;102796.75;;;-4.75;85.09
75192;BME280;63771;52.580;9.734;2023-03-01T02:06:29;102802.13;;;-4.78;85.01
75192;BME280;63771;52.580;9.734;2023-03-01T02:09:02;102795.06;;;-4.80;85.12
75192;BME280;63771;52.580;9.734;2023-03-01T02:11:30;102799.75;;;-4.82;85.13
75192;BME280;63771;52.580;9.734;2023-03-01T02:13:56;102796.09;;;-4.84;84.98
75192;BME280;63771;52.580;9.734;2023-03-01T02:16:22;102796.44;;;-4.86;85.04
75192;BME280;63771;52.580;9.734;2023-03-01T02:18:47;102798.69;;;-4.88;85.07
75192;BME280;63771;52.580;9.734;2023-03-01T02:21:20;102793.69;;;-4.88;85.35
75192;BME280;63771;52.580;9.734;2023-03-01T02:23:48;102789.50;;;-4.93;85.19
75192;BME280;63771;52.580;9.734;2023-03-01T02:26:21;102794.72;;;-4.91;85.17
75192;BME280;63771;52.580;9.734;2023-03-01T02:28:50;102783.03;;;-4.96;85.11
75192;BME280;63771;52.580;9.734;2023-03-01T02:31:17;102790.41;;;-4.92;85.06
75192;BME280;63771;52.580;9.734;2023-03-01T02:34:03;102775.97;;;-4.99;85.34
75192;BME280;63771;52.580;9.734;2023-03-01T02:36:43;102784.34;;;-4.99;85.25
75192;BME280;63771;52.580;9.734;2023-03-01T02:39:14;102785.94;;;-4.99;85.79
75192;BME280;63771;52.580;9.734;2023-03-01T02:41:46;102789.34;;;-4.99;86.27
75192;BME280;63771;52.580;9.734;2023-03-01T02:44:12;102793.91;;;-4.96;86.85
75192;BME280;63771;52.580;9.734;2023-03-01T02:46:46;102783.34;;;-4.95;86.78
75192;BME280;63771;52.580;9.734;2023-03-01T02:49:26;102785.28;;;-4.98;86.96
75192;BME280;63771;52.580;9.734;2023-03-01T02:57:25;102768.63;;;-5.03;86.58
75192;BME280;63771;52.580;9.734;2023-03-01T02:59:57;102754.34;;;-5.04;86.67
75192;BME280;63771;52.580;9.734;2023-03-01T03:02:29;102755.00;;;-5.05;86.77
75192;BME280;63771;52.580;9.734;2023-03-01T03:05:06;102753.53;;;-5.09;87.83
75192;BME280;63771;52.580;9.734;2023-03-01T03:07:34;102752.38;;;-5.11;87.99
75192;BME280;63771;52.580;9.734;2023-03-01T03:10:01;102747.09;;;-5.12;87.83
75192;BME280;63771;52.580;9.734;2023-03-01T03:12:27;102738.47;;;-5.14;88.01
75192;BME280;63771;52.580;9.734;2023-03-01T03:14:52;102742.25;;;-5.16;87.36
75192;BME280;63771;52.580;9.734;2023-03-01T03:17:17;102738.97;;;-5.21;87.43
75192;BME280;63771;52.580;9.734;2023-03-01T03:19:43;102734.34;;;-5.23;87.24
75192;BME280;63771;52.580;9.734;2023-03-01T03:22:13;102731.97;;;-5.28;86.92
75192;BME280;63771;52.580;9.734;2023-03-01T03:24:39;102726.47;;;-5.31;87.05
75192;BME280;63771;52.580;9.734;2023-03-01T03:27:05;102731.44;;;-5.31;86.98
75192;BME280;63771;52.580;9.734;2023-03-01T03:29:31;102730.38;;;-5.37;87.05
75192;BME280;63771;52.580;9.734;2023-03-01T03:31:56;102732.22;;;-5.36;87.17
75192;BME280;63771;52.580;9.734;2023-03-01T03:34:21;102729.47;;;-5.37;87.02
75192;BME280;63771;52.580;9.734;2023-03-01T03:36:47;102732.97;;;-5.41;87.19
75192;BME280;63771;52.580;9.734;2023-03-01T03:39:12;102741.69;;;-5.43;87.19
75192;BME280;63771;52.580;9.734;2023-03-01T03:41:38;102737.38;;;-5.44;87.28
75192;BME280;63771;52.580;9.734;2023-03-01T03:44:03;102739.34;;;-5.47;87.11
75192;BME280;63771;52.580;9.734;2023-03-01T03:46:28;102741.94;;;-5.51;87.05
75192;BME280;63771;52.580;9.734;2023-03-01T03:48:54;102738.13;;;-5.49;87.17
75192;BME280;63771;52.580;9.734;2023-03-01T03:51:19;102738.78;;;-5.50;86.96
75192;BME280;63771;52.580;9.734;2023-03-01T03:53:45;102737.63;;;-5.52;86.80
75192;BME280;63771;52.580;9.734;2023-03-01T03:56:11;102729.72;;;-5.59;86.72
75192;BME280;63771;52.580;9.734;2023-03-01T03:58:36;102731.19;;;-5.56;86.40
75192;BME280;63771;52.580;9.734;2023-03-01T04:01:02;102725.13;;;-5.62;86.30
75192;BME280;63771;52.580;9.734;2023-03-01T04:03:29;102731.00;;;-5.61;86.28
75192;BME280;63771;52.580;9.734;2023-03-01T04:05:57;102728.09;;;-5.68;86.20
75192;BME280;63771;52.580;9.734;2023-03-01T04:08:23;102736.09;;;-5.65;86.13
75192;BME280;63771;52.580;9.734;2023-03-01T04:10:51;102732.41;;;-5.67;86.21
75192;BME280;63771;52.580;9.734;2023-03-01T04:13:20;102738.97;;;-5.68;86.17
75192;BME280;63771;52.580;9.734;2023-03-01T04:15:46;102728.72;;;-5.69;86.27
75192;BME280;63771;52.580;9.734;2023-03-01T04:18:13;102741.16;;;-5.69;86.31
75192;BME280;63771;52.580;9.734;2023-03-01T04:20:38;102742.47;;;-5.71;86.32
75192;BME280;63771;52.580;9.734;2023-03-01T04:23:12;102741.28;;;-5.73;86.35
75192;BME280;63771;52.580;9.734;2023-03-01T04:25:55;102747.81;;;-5.74;86.09
75192;BME280;63771;52.580;9.734;2023-03-01T04:28:27;102737.59;;;-5.75;85.95
75192;BME280;63771;52.580;9.734;2023-03-01T04:30:54;102751.84;;;-5.74;86.01
75192;BME280;63771;52.580;9.734;2023-03-01T04:33:21;102751.84;;;-5.74;86.10
75192;BME280;63771;52.580;9.734;2023-03-01T04:35:46;102739.53;;;-5.79;86.22
75192;BME280;63771;52.580;9.734;2023-03-01T04:38:14;102737.69;;;-5.80;86.08
75192;BME280;63771;52.580;9.734;2023-03-01T04:40:40;102743.22;;;-5.77;86.18
75192;BME280;63771;52.580;9.734;2023-03-01T04:43:09;102743.84;;;-5.78;85.98
75192;BME280;63771;52.580;9.734;2023-03-01T04:45:34;102730.34;;;-5.84;86.18
75192;BME280;63771;52.580;9.734;2023-03-01T04:48:00;102740.81;;;-5.81;86.04
75192;BME280;63771;52.580;9.734;2023-03-01T04:50:25;102739.00;;;-5.82;86.23
75192;BME280;63771;52.580;9.734;2023-03-01T04:52:51;102737.16;;;-5.83;86.28
75192;BME280;63771;52.580;9.734;2023-03-01T04:55:17;102738.72;;;-5.83;86.82
75192;BME280;63771;52.580;9.734;2023-03-01T04:57:43;102743.31;;;-5.81;86.92
75192;BME280;63771;52.580;9.734;2023-03-01T05:00:10;102729.06;;;-5.82;87.27
75192;BME280;63771;52.580;9.734;2023-03-01T05:02:49;102726.97;;;-5.84;87.40
75192;BME280;63771;52.580;9.734;2023-03-01T05:05:19;102732.72;;;-5.80;87.71
75192;BME280;63771;52.580;9.734;2023-03-01T05:07:45;102732.09;;;-5.79;87.77
75192;BME280;63771;52.580;9.734;2023-03-01T05:10:10;102734.56;;;-5.79;87.42
75192;BME280;63771;52.580;9.734;2023-03-01T05:12:36;102728.41;;;-5.81;87.49
75192;BME280;63771;52.580;9.734;2023-03-01T05:15:03;102732.09;;;-5.79;87.44
75192;BME280;63771;52.580;9.734;2023-03-01T05:17:32;102726.81;;;-5.80;87.68
75192;BME280;63771;52.580;9.734;2023-03-01T05:19:58;102720.28;;;-5.80;87.78
75192;BME280;63771;52.580;9.734;2023-03-01T05:22:25;102715.97;;;-5.81;87.67
75192;BME280;63771;52.580;9.734;2023-03-01T05:24:50;102719.09;;;-5.82;87.71
75192;BME280;63771;52.580;9.734;2023-03-01T05:27:15;102724.06;;;-5.82;87.68
75192;BME280;63771;52.580;9.734;2023-03-01T05:29:41;102719.50;;;-5.84;87.45
75192;BME280;63771;52.580;9.734;2023-03-01T05:32:06;102718.56;;;-5.85;87.73
75192;BME280;63771;52.580;9.734;2023-03-01T05:34:34;102722.59;;;-5.85;87.43
75192;BME280;63771;52.580;9.734;2023-03-01T05:37:01;102723.00;;;-5.88;87.17
75192;BME280;63771;52.580;9.734;2023-03-01T05:39:27;102724.31;;;-5.90;87.12
75192;BME280;63771;52.580;9.734;2023-03-01T05:41:55;102724.31;;;-5.90;87.01
75192;BME280;63771;52.580;9.734;2023-03-01T05:44:20;102723.34;;;-5.90;87.18
75192;BME280;63771;52.580;9.734;2023-03-01T05:46:46;102715.16;;;-5.95;86.83
75192;BME280;63771;52.580;9.734;2023-03-01T05:49:12;102721.81;;;-5.90;87.36
75192;BME280;63771;52.580;9.734;2023-03-01T05:51:39;102713.72;;;-5.89;87.27
75192;BME280;63771;52.580;9.734;2023-03-01T05:54:04;102717.28;;;-5.83;87.25
75192;BME280;63771;52.580;9.734;2023-03-01T05:56:33;102717.63;;;-5.85;87.04
75192;BME280;63771;52.580;9.734;2023-03-01T05:58:59;102727.22;;;-5.83;87.00
75192;BME280;63771;52.580;9.734;2023-03-01T06:01:24;102723.53;;;-5.85;86.86
75192;BME280;63771;52.580;9.734;2023-03-01T06:03:49;102715.53;;;-5.88;86.68
75192;BME280;63771;52.580;9.734;2023-03-01T06:06:15;102724.16;;;-5.86;86.74
75192;BME280;63771;52.580;9.734;2023-03-01T06:08:40;102726.13;;;-5.89;86.84
75192;BME280;63771;52.580;9.734;2023-03-01T06:11:05;102732.03;;;-5.88;86.94
75192;BME280;63771;52.580;9.734;2023-03-01T06:13:32;102728.31;;;-5.90;87.18
75192;BME280;63771;52.580;9.734;2023-03-01T06:15:57;102734.84;;;-5.91;86.91
75192;BME280;63771;52.580;9.734;2023-03-01T06:18:22;102727.41;;;-5.91;87.11
75192;BME280;63771;52.580;9.734;2023-03-01T06:20:55;102728.75;;;-5.93;86.94
75192;BME280;63771;52.580;9.734;2023-03-01T06:23:22;102726.25;;;-5.93;87.43
75192;BME280;63771;52.580;9.734;2023-03-01T06:25:47;102733.72;;;-5.93;87.15
75192;BME280;63771;52.580;9.734;2023-03-01T06:28:12;102733.28;;;-5.90;87.36
75192;BME280;63771;52.580;9.734;2023-03-01T06:30:38;102731.09;;;-5.89;87.79
75192;BME280;63771;52.580;9.734;2023-03-01T06:33:03;102730.72;;;-5.86;87.79
75192;BME280;63771;52.580;9.734;2023-03-01T06:35:29;102726.66;;;-5.86;88.00
75192;BME280;63771;52.580;9.734;2023-03-01T06:37:55;102734.13;;;-5.86;88.01
75192;BME280;63771;52.580;9.734;2023-03-01T06:40:21;102732.84;;;-5.84;88.22
75192;BME280;63771;52.580;9.734;2023-03-01T06:42:50;102733.09;;;-5.82;88.17
75192;BME280;63771;52.580;9.734;2023-03-01T06:45:17;102726.56;;;-5.82;88.03
75192;BME280;63771;52.580;9.734;2023-03-01T06:47:43;102727.13;;;-5.79;88.06
75192;BME280;63771;52.580;9.734;2023-03-01T06:50:09;102725.81;;;-5.77;88.00
75192;BME280;63771;52.580;9.734;2023-03-01T06:52:34;102722.97;;;-5.74;87.68
75192;BME280;63771;52.580;9.734;2023-03-01T06:55:00;102726.25;;;-5.69;88.56
75192;BME280;63771;52.580;9.734;2023-03-01T06:57:25;102727.06;;;-5.65;88.61
75192;BME280;63771;52.580;9.734;2023-03-01T06:59:51;102721.06;;;-5.61;88.65
75192;BME280;63771;52.580;9.734;2023-03-01T07:02:16;102726.84;;;-5.57;88.88
75192;BME280;63771;52.580;9.734;2023-03-01T07:04:42;102722.16;;;-5.55;88.89
75192;BME280;63771;52.580;9.734;2023-03-01T07:07:08;102729.13;;;-5.48;88.77
75192;BME280;63771;52.580;9.734;2023-03-01T07:09:33;102733.31;;;-5.43;88.87
75192;BME280;63771;52.580;9.734;2023-03-01T07:11:58;102727.59;;;-5.38;89.00
75192;BME280;63771;52.580;9.734;2023-03-01T07:14:24;102718.56;;;-5.38;89.04
75192;BME280;63771;52.580;9.734;2023-03-01T07:16:51;102729.22;;;-5.29;88.79
75192;BME280;63771;52.580;9.734;2023-03-01T07:19:18;102726.22;;;-5.22;89.08
75192;BME280;63771;52.580;9.734;2023-03-01T07:21:43;102721.03;;;-5.14;89.39
75192;BME280;63771;52.580;9.734;2023-03-01T07:24:09;102721.09;;;-5.05;90.04
75192;BME280;63771;52.580;9.734;2023-03-01T07:26:34;102723.63;;;-4.95;90.15
75192;BME280;63771;52.580;9.734;2023-03-01T07:29:00;102712.91;;;-4.80;89.84
75192;BME280;63771;52.580;9.734;2023-03-01T07:31:26;102716.72;;;-4.73;89.37
75192;BME280;63771;52.580;9.734;2023-03-01T07:33:54;102715.94;;;-4.67;88.96
75192;BME280;63771;52.580;9.734;2023-03-01T07:36:19;102704.81;;;-4.60;89.01
75192;BME280;63771;52.580;9.734;2023-03-01T07:38:44;102702.47;;;-4.54;88.84
75192;BME280;63771;52.580;9.734;2023-03-01T07:41:10;102704.81;;;-4.50;88.89
75192;BME280;63771;52.580;9.734;2023-03-01T07:43:35;102705.38;;;-4.47;88.72
75192;BME280;63771;52.580;9.734;2023-03-01T07:46:01;102703.38;;;-4.44;88.88
75192;BME280;63771;52.580;9.734;2023-03-01T07:48:28;102708.91;;;-4.41;88.89
75192;BME280;63771;52.580;9.734;2023-03-01T07:50:53;102713.09;;;-4.36;88.72
75192;BME280;63771;52.580;9.734;2023-03-01T07:53:18;102714.81;;;-4.31;88.61
75192;BME280;63771;52.580;9.734;2023-03-01T07:55:44;102719.28;;;-4.24;88.44
75192;BME280;63771;52.580;9.734;2023-03-01T07:58:09;102717.69;;;-4.14;88.26
75192;BME280;63771;52.580;9.734;2023-03-01T08:00:34;102714.66;;;-4.07;88.03
75192;BME280;63771;52.580;9.734;2023-03-01T08:03:00;102707.06;;;-4.03;87.85
75192;BME280;63771;52.580;9.734;2023-03-01T08:05:26;102714.66;;;-3.88;87.74
75192;BME280;63771;52.580;9.734;2023-03-01T08:07:52;102709.41;;;-3.80;87.46
75192;BME280;63771;52.580;9.734;2023-03-01T08:10:17;102702.31;;;-3.73;87.10
75192;BME280;63771;52.580;9.734;2023-03-01T08:12:43;102703.75;;;-3.59;86.71
75192;BME280;63771;52.580;9.734;2023-03-01T08:15:08;102690.16;;;-3.46;85.97
75192;BME280;63771;52.580;9.734;2023-03-01T08:17:34;102691.13;;;-3.21;84.55
75192;BME280;63771;52.580;9.734;2023-03-01T08:19:59;102687.25;;;-3.09;83.99
75192;BME280;63771;52.580;9.734;2023-03-01T08:22:24;102684.84;;;-3.03;84.11
75192;BME280;63771;52.580;9.734;2023-03-01T08:24:50;102695.22;;;-2.96;83.97
75192;BME280;63771;52.580;9.734;2023-03-01T08:27:16;102681.25;;;-2.90;83.92
75192;BME280;63771;52.580;9.734;2023-03-01T08:29:42;102691.19;;;-2.80;83.75
75192;BME280;63771;52.580;9.734;2023-03-01T08:32:07;102685.63;;;-2.74;84.01
75192;BME280;63771;52.580;9.734;2023-03-01T08:34:32;102692.38;;;-2.63;84.20
75192;BME280;63771;52.580;9.734;2023-03-01T08:37:00;102691.66;;;-2.52;84.12
75192;BME280;63771;52.580;9.734;2023-03-01T08:39:26;102693.16;;;-2.43;83.82
75192;BME280;63771;52.580;9.734;2023-03-01T08:41:52;102684.41;;;-2.36;84.37
75192;BME280;63771;52.580;9.734;2023-03-01T08:44:17;102675.91;;;-2.26;83.91
75192;BME280;63771;52.580;9.734;2023-03-01T08:46:44;102676.53;;;-2.18;83.96
75192;BME280;63771;52.580;9.734;2023-03-01T08:49:16;102673.41;;;-2.11;84.10
75192;BME280;63771;52.580;9.734;2023-03-01T08:51:42;102681.50;;;-2.02;84.54
75192;BME280;63771;52.580;9.734;2023-03-01T08:54:13;102674.16;;;-1.91;84.70
75192;BME280;63771;52.580;9.734;2023-03-01T08:56:40;102676.97;;;-1.84;84.43
75192;BME280;63771;52.580;9.734;2023-03-01T08:59:05;102668.47;;;-1.75;83.41
75192;BME280;63771;52.580;9.734;2023-03-01T09:01:31;102675.03;;;-1.60;83.05
75192;BME280;63771;52.580;9.734;2023-03-01T09:03:56;102678.34;;;-1.50;82.59
75192;BME280;63771;52.580;9.734;2023-03-01T09:06:22;102671.88;;;-1.38;82.33
75192;BME280;63771;52.580;9.734;2023-03-01T09:08:49;102664.91;;;-1.29;80.96
75192;BME280;63771;52.580;9.734;2023-03-01T09:11:18;102661.84;;;-1.17;80.53
75192;BME280;63771;52.580;9.734;2023-03-01T09:13:44;102674.91;;;-1.09;80.50
75192;BME280;63771;52.580;9.734;2023-03-01T09:16:12;102663.59;;;-1.01;80.89
75192;BME280;63771;52.580;9.734;2023-03-01T09:18:38;102667.91;;;-0.79;79.77
75192;BME280;63771;52.580;9.734;2023-03-01T09:21:15;102668.47;;;-0.65;78.47
75192;BME280;63771;52.580;9.734;2023-03-01T09:23:43;102660.09;;;-0.60;78.44
75192;BME280;63771;52.580;9.734;2023-03-01T09:26:10;102659.72;;;-0.51;78.72
75192;BME280;63771;52.580;9.734;2023-03-01T09:28:36;102660.72;;;-0.40;79.23
75192;BME280;63771;52.580;9.734;2023-03-01T09:31:03;102662.56;;;-0.33;79.48
75192;BME280;63771;52.580;9.734;2023-03-01T09:33:30;102652.16;;;-0.25;79.37
75192;BME280;63771;52.580;9.734;2023-03-01T09:35:58;102654.50;;;-0.15;79.20
75192;BME280;63771;52.580;9.734;2023-03-01T09:38:23;102644.50;;;-0.10;79.45
75192;BME280;63771;52.580;9.734;2023-03-01T09:40:48;102658.25;;;0.04;79.21
75192;BME280;63771;52.580;9.734;2023-03-01T09:43:51;102641.63;;;0.15;77.67
75192;BME280;63771;52.580;9.734;2023-03-01T09:46:23;102643.28;;;0.26;76.77
75192;BME280;63771;52.580;9.734;2023-03-01T09:48:55;102643.34;;;0.37;75.93
75192;BME280;63771;52.580;9.734;2023-03-01T09:51:32;102637.47;;;0.54;74.38
75192;BME280;63771;52.580;9.734;2023-03-01T09:53:58;102638.88;;;0.68;73.26
75192;BME280;63771;52.580;9.734;2023-03-01T09:56:39;102636.63;;;0.81;71.97
75192;BME280;63771;52.580;9.734;2023-03-01T09:59:29;102638.94;;;1.02;71.21
75192;BME280;63771;52.580;9.734;2023-03-01T10:02:23;102634.81;;;1.25;68.57
75192;BME280;63771;52.580;9.734;2023-03-01T10:04:54;102628.88;;;1.36;68.32
75192;BME280;63771;52.580;9.734;2023-03-01T10:09:49;102630.91;;;1.61;65.85
75192;BME280;63771;52.580;9.734;2023-03-01T10:12:27;102632.94;;;1.74;65.90
75192;BME280;63771;52.580;9.734;2023-03-01T10:18:03;102623.75;;;1.86;65.81
75192;BME280;63771;52.580;9.734;2023-03-01T10:20:51;102630.38;;;1.91;66.21
75192;BME280;63771;52.580;9.734;2023-03-01T10:23:17;102632.44;;;1.94;67.02
75192;BME280;63771;52.580;9.734;2023-03-01T10:26:01;102629.19;;;2.06;64.80
75192;BME280;63771;52.580;9.734;2023-03-01T10:29:09;102624.09;;;2.23;63.51
75192;BME280;63771;52.580;9.734;2023-03-01T10:31:46;102623.09;;;2.39;63.21
75192;BME280;63771;52.580;9.734;2023-03-01T10:34:19;102623.56;;;2.42;63.87
75192;BME280;63771;52.580;9.734;2023-03-01T10:36:48;102623.03;;;2.56;62.86
75192;BME280;63771;52.580;9.734;2023-03-01T10:39:16;102621.94;;;2.83;61.69
75192;BME280;63771;52.580;9.734;2023-03-01T10:42:03;102617.63;;;3.06;60.27
75192;BME280;63771;52.580;9.734;2023-03-01T10:44:43;102610.31;;;3.02;61.28
75192;BME280;63771;52.580;9.734;2023-03-01T10:47:20;102619.53;;;2.96;62.39
75192;BME280;63771;52.580;9.734;2023-03-01T10:49:59;102600.09;;;2.95;63.29
75192;BME280;63771;52.580;9.734;2023-03-01T10:52:28;102590.22;;;2.97;63.84
75192;BME280;63771;52.580;9.734;2023-03-01T10:55:19;102593.13;;;3.05;63.37
75192;BME280;63771;52.580;9.734;2023-03-01T10:57:49;102596.56;;;3.06;63.62
75192;BME280;63771;52.580;9.734;2023-03-01T11:00:21;102591.75;;;3.31;60.47
75192;BME280;63771;52.580;9.734;2023-03-01T11:03:12;102595.94;;;3.25;61.71
75192;BME280;63771;52.580;9.734;2023-03-01T11:05:51;102593.63;;;3.27;61.59
75192;BME280;63771;52.580;9.734;2023-03-01T11:08:33;102594.06;;;3.30;61.32
75192;BME280;63771;52.580;9.734;2023-03-01T11:11:05;102590.78;;;3.36;61.56
75192;BME280;63771;52.580;9.734;2023-03-01T11:13:31;102590.47;;;3.46;59.39
75192;BME280;63771;52.580;9.734;2023-03-01T11:16:01;102595.28;;;3.69;57.09
75192;BME280;63771;52.580;9.734;2023-03-01T11:18:29;102582.72;;;3.63;57.70
75192;BME280;63771;52.580;9.734;2023-03-01T11:20:56;102580.41;;;3.64;58.28
75192;BME280;63771;52.580;9.734;2023-03-01T11:23:24;102577.81;;;3.70;58.03
75192;BME280;63771;52.580;9.734;2023-03-01T11:26:02;102577.06;;;3.77;56.62
75192;BME280;63771;52.580;9.734;2023-03-01T11:28:30;102575.41;;;3.83;57.13
75192;BME280;63771;52.580;9.734;2023-03-01T11:31:00;102575.97;;;3.93;58.01
75192;BME280;63771;52.580;9.734;2023-03-01T11:33:43;102573.16;;;3.97;56.01
75192;BME280;63771;52.580;9.734;2023-03-01T11:39:20;102572.13;;;4.08;57.45
75192;BME280;63771;52.580;9.734;2023-03-01T11:41:50;102574.06;;;4.16;57.09
75192;BME280;63771;52.580;9.734;2023-03-01T11:44:24;102565.84;;;4.30;53.38
75192;BME280;63771;52.580;9.734;2023-03-01T11:47:21;102563.03;;;4.34;53.71
75192;BME280;63771;52.580;9.734;2023-03-01T11:55:18;102545.66;;;4.61;50.74
75192;BME280;63771;52.580;9.734;2023-03-01T11:58:06;102537.88;;;4.72;49.08
75192;BME280;63771;52.580;9.734;2023-03-01T12:00:45;102543.56;;;4.77;50.08
75192;BME280;63771;52.580;9.734;2023-03-01T12:06:17;102540.41;;;4.85;49.16
75192;BME280;63771;52.580;9.734;2023-03-01T12:11:36;102531.72;;;4.83;49.73
75192;BME280;63771;52.580;9.734;2023-03-01T12:23:02;102519.91;;;4.89;49.61
75192;BME280;63771;52.580;9.734;2023-03-01T12:25:45;102511.59;;;4.90;50.24
75192;BME280;63771;52.580;9.734;2023-03-01T12:36:27;102495.22;;;5.19;50.84
75192;BME280;63771;52.580;9.734;2023-03-01T12:41:39;102485.69;;;5.36;49.09
75192;BME280;63771;52.580;9.734;2023-03-01T12:44:36;102483.66;;;5.59;45.97
75192;BME280;63771;52.580;9.734;2023-03-01T12:50:27;102475.72;;;5.63;46.46
75192;BME280;63771;52.580;9.734;2023-03-01T12:52:57;102477.06;;;5.54;47.65
75192;BME280;63771;52.580;9.734;2023-03-01T12:55:29;102477.38;;;5.50;48.83
75192;BME280;63771;52.580;9.734;2023-03-01T13:00:32;102470.75;;;5.70;45.92
75192;BME280;63771;52.580;9.734;2023-03-01T13:08:31;102449.13;;;5.92;44.05
75192;BME280;63771;52.580;9.734;2023-03-01T13:11:03;102453.41;;;5.73;45.32
75192;BME280;63771;52.580;9.734;2023-03-01T13:13:30;102448.16;;;5.72;44.90
75192;BME280;63771;52.580;9.734;2023-03-01T13:15:56;102440.69;;;5.66;44.99
75192;BME280;63771;52.580;9.734;2023-03-01T13:20:54;102434.41;;;5.57;47.33
75192;BME280;63771;52.580;9.734;2023-03-01T13:30:56;102430.38;;;5.85;44.87
75192;BME280;63771;52.580;9.734;2023-03-01T13:35:57;102428.41;;;5.89;44.16
75192;BME280;63771;52.580;9.734;2023-03-01T13:38:59;102423.34;;;6.02;43.06
75192;BME280;63771;52.580;9.734;2023-03-01T13:44:30;102415.97;;;5.91;44.10
75192;BME280;63771;52.580;9.734;2023-03-01T13:49:44;102406.16;;;5.87;45.44
75192;BME280;63771;52.580;9.734;2023-03-01T13:55:05;102406.53;;;5.90;46.61
75192;BME280;63771;52.580;9.734;2023-03-01T13:57:37;102398.13;;;5.96;47.14
75192;BME280;63771;52.580;9.734;2023-03-01T14:00:05;102392.53;;;6.19;44.83
75192;BME280;63771;52.580;9.734;2023-03-01T14:02:30;102393.06;;;6.16;45.08
75192;BME280;63771;52.580;9.734;2023-03-01T14:05:00;102398.25;;;6.11;45.05
75192;BME280;63771;52.580;9.734;2023-03-01T14:07:27;102395.19;;;6.13;45.36
75192;BME280;63771;52.580;9.734;2023-03-01T14:09:58;102396.66;;;6.11;44.97
75192;BME280;63771;52.580;9.734;2023-03-01T14:15:29;102397.84;;;6.27;44.93
75192;BME280;63771;52.580;9.734;2023-03-01T14:18:11;102390.28;;;6.35;42.89
75192;BME280;63771;52.580;9.734;2023-03-01T14:20:41;102390.97;;;6.26;43.83
75192;BME280;63771;52.580;9.734;2023-03-01T14:23:13;102383.69;;;6.22;43.71